Terminal Aerodrome Forecast
Issued by NWS Chicago, IL

Home | Current Version | Previous Version | Graphics & Text | Print | Product List | Glossary On
Versions: 1 2 3 4 5 6 7 8 9 10 11 12 13 14 15 16 17 18 19 20 21 22 23 24 25
182
FTUS43 KLOT 090531
TAFRFD
TAF
KRFD 090531Z 0906/1006 33014G21KT P6SM -SN SCT020 OVC035
      TEMPO 0907/0911 2SM -SN BKN020
     FM091200 33015G22KT P6SM -SHSN SCT020 OVC040=

USA.gov is the U.S. government's official web portal to all federal, state and local government web resources and services.